createdAt,value
2023-03-03T00:02:55.774Z,4.20
2023-03-03T00:07:48.987Z,4.20
2023-03-03T00:12:49.368Z,4.20
2023-03-03T00:17:41.055Z,4.20
2023-03-03T00:22:37.027Z,4.10
2023-03-03T00:27:38.452Z,4.00
2023-03-03T00:32:44.051Z,4.00
2023-03-03T00:37:36.136Z,4.00
2023-03-03T00:42:28.023Z,4.00
2023-03-03T00:47:37.696Z,4.00
2023-03-03T00:52:29.552Z,4.10
2023-03-03T00:57:21.221Z,4.10
2023-03-03T01:02:12.921Z,4.00
2023-03-03T01:07:04.580Z,4.00
2023-03-03T01:11:56.511Z,3.90
2023-03-03T01:16:48.241Z,3.90
2023-03-03T01:21:40.011Z,3.90
2023-03-03T01:26:31.732Z,4.00
2023-03-03T01:31:23.503Z,4.10
2023-03-03T01:36:15.238Z,4.00
2023-03-03T01:41:06.950Z,3.90
2023-03-03T01:51:19.217Z,3.80
2023-03-03T01:56:11.435Z,3.80
2023-03-03T02:01:12.326Z,3.80
2023-03-03T02:11:35.697Z,3.90
2023-03-03T02:32:39.415Z,3.80
2023-03-03T02:37:31.566Z,3.80
2023-03-03T02:42:29.720Z,3.80
2023-03-03T02:47:21.453Z,3.90
2023-03-03T02:52:14.731Z,3.80
2023-03-03T02:57:07.157Z,3.80
2023-03-03T03:01:59.272Z,3.90
2023-03-03T03:06:52.589Z,3.90
2023-03-03T03:11:44.800Z,3.90
2023-03-03T03:16:37.164Z,3.90
2023-03-03T03:21:29.672Z,4.00
2023-03-03T03:26:21.595Z,4.00
2023-03-03T03:31:13.516Z,4.00
2023-03-03T03:36:06.319Z,4.00
2023-03-03T03:40:58.420Z,4.00
2023-03-03T03:45:50.260Z,4.00
2023-03-03T03:50:41.973Z,4.10
2023-03-03T03:55:34.165Z,4.10
2023-03-03T04:00:26.212Z,4.10
2023-03-03T04:05:18.430Z,3.90
2023-03-03T04:10:11.488Z,3.90
2023-03-03T04:15:03.272Z,3.80
2023-03-03T04:19:54.974Z,3.90
2023-03-03T04:24:48.520Z,3.80
2023-03-03T04:29:41.003Z,3.90
2023-03-03T04:34:32.694Z,3.80
2023-03-03T04:50:04.958Z,3.70
2023-03-03T04:54:56.626Z,3.80
2023-03-03T04:59:48.317Z,3.90
2023-03-03T05:04:44.270Z,4.00
2023-03-03T05:20:18.388Z,3.80
2023-03-03T05:25:16.024Z,3.80
2023-03-03T05:30:09.725Z,3.80
2023-03-03T05:35:02.168Z,3.90
2023-03-03T05:45:03.129Z,3.90
2023-03-03T05:55:03.302Z,3.90
2023-03-03T06:00:03.453Z,4.00
2023-03-03T06:05:04.116Z,4.00
2023-03-03T06:15:05.956Z,4.00
2023-03-03T06:20:02.113Z,4.00
2023-03-03T06:24:55.165Z,4.00
2023-03-03T06:29:47.587Z,4.00
2023-03-03T06:34:40.770Z,4.10
2023-03-03T06:39:33.834Z,4.10
2023-03-03T06:44:30.350Z,4.20
2023-03-03T06:49:22.363Z,4.20
2023-03-03T06:54:25.053Z,4.30
2023-03-03T06:59:23.634Z,4.30
2023-03-03T07:35:47.538Z,4.60
2023-03-03T07:46:14.580Z,4.70
2023-03-03T07:51:49.348Z,4.70
2023-03-03T08:22:56.938Z,5.20
2023-03-03T08:27:53.438Z,5.30
2023-03-03T08:32:45.830Z,5.30
2023-03-03T09:13:25.281Z,5.60
2023-03-03T09:44:38.940Z,6.90
2023-03-03T10:01:48.588Z,7.30
2023-03-03T10:40:56.960Z,8.60
2023-03-03T10:52:23.838Z,8.80
2023-03-03T10:57:46.226Z,9.00
2023-03-03T11:03:32.373Z,9.00
2023-03-03T11:31:34.288Z,8.70
2023-03-03T11:36:43.694Z,8.80
2023-03-03T11:53:24.920Z,8.40
2023-03-03T15:20:30.883Z,9.10
2023-03-03T16:26:34.671Z,8.60
2023-03-03T16:31:43.156Z,8.50
2023-03-03T16:48:23.678Z,8.20
2023-03-03T16:59:26.130Z,8.10
2023-03-03T17:10:29.417Z,8.10
2023-03-03T17:50:50.852Z,7.70
2023-03-03T18:09:13.193Z,7.50
2023-03-03T18:20:04.392Z,7.30
2023-03-03T18:41:00.031Z,7.10
2023-03-03T18:45:56.040Z,7.10
2023-03-03T18:50:54.010Z,7.10
2023-03-03T19:11:56.126Z,7.10
2023-03-03T19:16:53.037Z,7.00
2023-03-03T19:21:53.143Z,7.00
2023-03-03T19:32:42.164Z,7.00
2023-03-03T19:38:15.553Z,7.00
2023-03-03T19:43:39.064Z,6.90
2023-03-03T19:48:55.746Z,6.90
2023-03-03T19:54:15.893Z,6.80
2023-03-03T19:59:36.144Z,6.80
2023-03-03T20:10:17.048Z,6.70
2023-03-03T20:15:38.226Z,6.70
2023-03-03T20:20:50.681Z,6.60
2023-03-03T20:26:04.395Z,6.60
2023-03-03T20:31:54.832Z,6.50
2023-03-03T20:37:07.179Z,6.50
2023-03-03T20:42:53.021Z,6.50
2023-03-03T20:48:23.754Z,6.50
2023-03-03T20:59:36.218Z,6.40
2023-03-03T21:15:05.684Z,6.30
2023-03-03T21:25:42.455Z,6.30
2023-03-03T21:51:31.026Z,6.20
2023-03-03T21:56:24.758Z,6.20
2023-03-03T22:26:47.836Z,6.10
2023-03-03T22:36:53.630Z,6.00
2023-03-03T22:52:02.800Z,5.90
2023-03-03T23:12:18.309Z,5.50
